Time;durP1;ratioP1;P1;durP2;ratioP2;P2;SDS_P1;SDS_P2;PMS_P1;PMS_P2;Temp;Humidity;BMP_temperature;BMP_pressure;BME280_temperature;BME280_humidity;BME280_pressure;Samples;Min_cycle;Max_cycle;Signal;HPM_P1;HPM_P2
2023/01/25 00:02:08;;;;;;;32.75;25.75;;;0.50;60.10;;;;;;4945169;28;20036;-78
2023/01/25 00:04:34;;;;;;;32.40;25.15;;;0.50;60.20;;;;;;4937489;29;20552;-78
2023/01/25 00:07:00;;;;;;;33.65;26.10;;;0.50;60.20;;;;;;4952670;29;20058;-78
2023/01/25 00:09:26;;;;;;;30.23;24.55;;;0.50;60.20;;;;;;4947256;28;20378;-79
2023/01/25 00:11:52;;;;;;;33.72;26.35;;;0.50;60.20;;;;;;4954353;28;20158;-79
2023/01/25 00:14:18;;;;;;;37.97;28.77;;;0.40;60.10;;;;;;4955464;28;20083;-79
2023/01/25 00:16:44;;;;;;;34.70;28.02;;;0.50;60.30;;;;;;4947152;28;20316;-78
2023/01/25 00:19:10;;;;;;;36.83;28.20;;;0.50;60.30;;;;;;4941115;29;20044;-79
2023/01/25 00:21:37;;;;;;;40.35;29.65;;;0.50;60.30;;;;;;4954786;28;20067;-78
2023/01/25 00:24:04;;;;;;;39.70;29.92;;;0.50;60.30;;;;;;4954948;28;20098;-78
2023/01/25 00:26:31;;;;;;;44.00;32.00;;;0.50;60.30;;;;;;4939251;28;20058;-79
2023/01/25 00:28:57;;;;;;;42.05;31.75;;;0.50;60.30;;;;;;4950345;28;20122;-78
2023/01/25 00:31:41;;;;;;;42.83;32.03;;;0.50;60.30;;;;;;4946732;29;20110;-79
2023/01/25 00:34:26;;;;;;;46.97;33.50;;;0.50;60.30;;;;;;4940027;29;20027;-79
2023/01/25 00:37:23;;;;;;;46.13;33.08;;;0.60;60.50;;;;;;4950267;28;20035;-78
2023/01/25 00:39:49;;;;;;;45.88;34.40;;;0.60;60.40;;;;;;4949588;29;20043;-78
2023/01/25 00:42:18;;;;;;;49.60;34.95;;;0.60;60.30;;;;;;4942580;29;20116;-79
2023/01/25 00:44:44;;;;;;;48.30;34.97;;;0.70;60.50;;;;;;4931333;29;20035;-78
2023/01/25 00:47:11;;;;;;;50.13;34.72;;;0.70;60.50;;;;;;4928199;29;20216;-79
2023/01/25 00:49:38;;;;;;;47.88;35.33;;;0.80;60.60;;;;;;4943678;28;20032;-78
2023/01/25 00:52:05;;;;;;;48.40;34.30;;;0.80;60.60;;;;;;4936440;28;20043;-79
2023/01/25 00:54:31;;;;;;;50.80;34.28;;;0.80;60.60;;;;;;4930963;29;20428;-79
2023/01/25 00:56:57;;;;;;;49.08;35.13;;;0.90;60.70;;;;;;4933402;29;20039;-78
2023/01/25 00:59:24;;;;;;;49.97;34.35;;;0.90;60.70;;;;;;4935208;29;20039;-79
2023/01/25 01:01:50;;;;;;;49.45;33.65;;;1.00;60.90;;;;;;4949479;29;20046;-79
2023/01/25 01:04:17;;;;;;;48.00;33.50;;;1.00;60.90;;;;;;4947793;29;20483;-78
2023/01/25 01:06:43;;;;;;;48.85;34.60;;;1.00;60.90;;;;;;4949092;28;20043;-79
2023/01/25 01:09:15;;;;;;;47.45;32.60;;;1.00;61.40;;;;;;4933769;29;20122;-80
2023/01/25 01:11:41;;;;;;;45.97;32.28;;;1.10;61.00;;;;;;4935411;29;20064;-79
2023/01/25 01:14:07;;;;;;;48.90;32.05;;;1.10;61.00;;;;;;4937862;29;20046;-79
2023/01/25 01:16:34;;;;;;;41.22;29.33;;;1.10;61.00;;;;;;4939281;29;20040;-78
2023/01/25 01:19:01;;;;;;;45.38;31.83;;;1.20;61.20;;;;;;4924455;29;20357;-79
2023/01/25 01:21:27;;;;;;;41.88;27.70;;;1.20;61.20;;;;;;4948643;28;20032;-78
2023/01/25 01:23:54;;;;;;;41.85;29.05;;;1.20;61.20;;;;;;4916989;29;20046;-78
2023/01/25 01:26:20;;;;;;;39.80;28.65;;;1.30;61.30;;;;;;4953711;28;20050;-79
2023/01/25 01:28:47;;;;;;;37.30;27.35;;;1.30;61.30;;;;;;4942117;29;20045;-80
2023/01/25 01:31:20;;;;;;;35.97;26.30;;;1.30;61.30;;;;;;4945170;29;20837;-80
2023/01/25 01:33:57;;;;;;;34.80;26.52;;;1.30;61.40;;;;;;4958401;28;20098;-80
2023/01/25 01:36:25;;;;;;;32.40;24.80;;;1.40;61.50;;;;;;4958369;28;20043;-80
2023/01/25 01:38:51;;;;;;;34.63;25.42;;;1.40;61.50;;;;;;4958480;28;20122;-78
2023/01/25 01:41:18;;;;;;;33.75;22.80;;;1.40;61.50;;;;;;4952119;29;20050;-78
2023/01/25 01:43:45;;;;;;;28.50;22.08;;;1.40;61.50;;;;;;4942267;28;20035;-78
2023/01/25 01:46:23;;;;;;;30.85;23.38;;;1.50;61.70;;;;;;4936409;29;20114;-78
2023/01/25 01:49:01;;;;;;;28.75;21.65;;;1.50;61.70;;;;;;4922211;29;20104;-78
2023/01/25 01:51:46;;;;;;;30.33;22.40;;;1.50;61.70;;;;;;4936617;29;20059;-78
2023/01/25 01:54:24;;;;;;;28.08;20.58;;;1.50;61.70;;;;;;4934939;28;20118;-78
2023/01/25 01:56:57;;;;;;;25.42;19.83;;;1.50;61.70;;;;;;4946628;28;20184;-79
2023/01/25 01:59:27;;;;;;;25.33;19.98;;;1.50;61.70;;;;;;4931120;29;20042;-78
2023/01/25 02:01:54;;;;;;;26.58;18.85;;;1.60;61.90;;;;;;4962772;28;20079;-79
2023/01/25 02:04:23;;;;;;;24.80;18.73;;;1.60;61.90;;;;;;4953716;28;20044;-80
2023/01/25 02:06:53;;;;;;;26.58;18.67;;;1.60;61.90;;;;;;4953860;28;20581;-79
2023/01/25 02:09:24;;;;;;;24.17;18.15;;;1.60;61.90;;;;;;4937537;29;20027;-79
2023/01/25 02:11:51;;;;;;;20.30;16.23;;;1.60;61.90;;;;;;4937429;29;20166;-79
2023/01/25 02:14:18;;;;;;;20.23;16.08;;;1.60;61.90;;;;;;4948080;28;20038;-78
2023/01/25 02:16:44;;;;;;;23.55;17.55;;;1.70;62.10;;;;;;4954752;28;20071;-79
2023/01/25 02:19:25;;;;;;;22.05;17.08;;;1.70;62.10;;;;;;4952839;28;20055;-79
2023/01/25 02:21:53;;;;;;;20.90;16.02;;;1.70;62.10;;;;;;4937249;29;20403;-78
2023/01/25 02:24:31;;;;;;;24.02;16.67;;;1.70;62.10;;;;;;4934135;29;20487;-79
2023/01/25 02:26:57;;;;;;;20.73;16.48;;;1.70;62.10;;;;;;4947029;28;20040;-78
2023/01/25 02:29:26;;;;;;;21.23;15.25;;;1.70;62.10;;;;;;4923823;29;20383;-78
2023/01/25 02:31:59;;;;;;;20.15;15.73;;;1.70;62.10;;;;;;4909773;29;20028;-78
2023/01/25 02:34:27;;;;;;;21.02;14.88;;;1.70;62.10;;;;;;4926007;29;20119;-78
2023/01/25 02:36:53;;;;;;;23.20;16.40;;;1.80;62.30;;;;;;4943270;28;20435;-78
2023/01/25 02:39:19;;;;;;;17.77;14.07;;;1.80;62.30;;;;;;4920715;29;20136;-78
2023/01/25 02:41:49;;;;;;;20.13;14.23;;;1.80;62.30;;;;;;4931818;29;20057;-79
2023/01/25 02:44:25;;;;;;;20.55;14.98;;;1.80;62.30;;;;;;4951551;28;20047;-79
2023/01/25 02:46:51;;;;;;;18.88;14.88;;;1.80;62.30;;;;;;4942218;29;20059;-78
2023/01/25 02:49:19;;;;;;;18.90;14.90;;;1.80;62.30;;;;;;4951339;29;20040;-79
2023/01/25 02:51:50;;;;;;;16.23;13.70;;;1.90;62.50;;;;;;4956747;28;20515;-79
2023/01/25 02:54:19;;;;;;;18.38;13.82;;;1.90;62.50;;;;;;4958191;28;20565;-77
2023/01/25 02:56:45;;;;;;;18.08;14.07;;;1.80;62.30;;;;;;4944299;28;20487;-78
2023/01/25 02:59:12;;;;;;;19.05;14.73;;;1.90;62.40;;;;;;4957590;28;20502;-78
2023/01/25 03:01:41;;;;;;;18.42;14.13;;;1.90;62.40;;;;;;4957939;29;20047;-79
2023/01/25 03:04:08;;;;;;;19.42;14.43;;;1.90;62.40;;;;;;4972550;28;20121;-78
2023/01/25 03:06:35;;;;;;;18.48;13.52;;;1.90;62.60;;;;;;4948453;29;20077;-79
2023/01/25 03:09:03;;;;;;;19.17;14.70;;;1.90;62.40;;;;;;4960975;28;20035;-79
2023/01/25 03:11:30;;;;;;;18.25;14.63;;;1.90;62.40;;;;;;4972307;28;20046;-80
2023/01/25 03:13:58;;;;;;;20.08;15.48;;;1.90;62.40;;;;;;4950867;28;20034;-80
2023/01/25 03:16:24;;;;;;;19.60;15.13;;;2.00;62.50;;;;;;4957884;29;20035;-78
2023/01/25 03:18:53;;;;;;;19.63;14.20;;;2.00;62.50;;;;;;4959389;28;20091;-80
2023/01/25 03:21:21;;;;;;;19.70;16.80;;;2.00;62.50;;;;;;4956662;29;20042;-79
2023/01/25 03:23:53;;;;;;;24.75;16.95;;;2.00;62.50;;;;;;4958858;28;20028;-79
2023/01/25 03:26:23;;;;;;;19.73;16.10;;;2.00;62.50;;;;;;4954191;29;20051;-79
2023/01/25 03:29:10;;;;;;;21.70;16.90;;;2.00;62.50;;;;;;4974218;28;20094;-79
2023/01/25 03:31:39;;;;;;;22.48;17.65;;;2.00;62.50;;;;;;4959208;28;20042;-79
2023/01/25 03:34:05;;;;;;;20.80;17.38;;;2.00;62.50;;;;;;4948777;28;20091;-79
2023/01/25 03:36:36;;;;;;;22.27;16.35;;;2.00;62.50;;;;;;4952849;29;20039;-79
2023/01/25 03:39:03;;;;;;;23.50;16.73;;;2.10;62.70;;;;;;4944595;29;20042;-77
2023/01/25 03:41:29;;;;;;;21.80;17.50;;;2.00;62.50;;;;;;4964476;28;20487;-78
2023/01/25 03:43:58;;;;;;;23.10;18.05;;;2.10;62.70;;;;;;4944332;29;20070;-79
2023/01/25 03:46:24;;;;;;;23.63;17.67;;;2.10;62.60;;;;;;4950658;28;20054;-78
2023/01/25 03:48:50;;;;;;;23.90;17.33;;;2.10;62.60;;;;;;4954977;28;20042;-79
2023/01/25 03:51:16;;;;;;;24.40;18.48;;;2.10;62.60;;;;;;4926848;29;20039;-78
2023/01/25 03:53:42;;;;;;;23.40;17.88;;;2.10;62.60;;;;;;4950215;29;20083;-79
2023/01/25 03:56:18;;;;;;;21.38;16.48;;;2.10;62.60;;;;;;4955734;28;20043;-78
2023/01/25 03:58:51;;;;;;;23.50;17.60;;;2.10;62.60;;;;;;4956554;29;20039;-79
2023/01/25 04:01:17;;;;;;;21.98;17.35;;;2.20;62.70;;;;;;4959250;28;20084;-79
2023/01/25 04:03:43;;;;;;;22.83;17.65;;;2.20;62.70;;;;;;4953422;28;20038;-79
2023/01/25 04:06:10;;;;;;;22.30;16.60;;;2.20;62.70;;;;;;4955151;28;20070;-78
2023/01/25 04:08:37;;;;;;;25.67;17.45;;;2.20;62.70;;;;;;4954504;29;20514;-78
2023/01/25 04:11:07;;;;;;;19.75;15.23;;;2.20;62.70;;;;;;4951350;28;20042;-79
2023/01/25 04:13:35;;;;;;;20.48;14.93;;;2.20;62.60;;;;;;4955240;28;20093;-79
2023/01/25 04:16:06;;;;;;;19.23;15.68;;;2.20;62.60;;;;;;4954482;29;20138;-78
2023/01/25 04:18:58;;;;;;;21.95;15.40;;;2.20;62.60;;;;;;4953490;28;20095;-79
2023/01/25 04:21:25;;;;;;;20.95;15.70;;;2.20;62.60;;;;;;4949421;29;20082;-78
2023/01/25 04:23:52;;;;;;;18.55;14.80;;;2.30;62.70;;;;;;4951868;29;20644;-79
2023/01/25 04:26:17;;;;;;;24.30;16.20;;;2.20;62.60;;;;;;4956333;28;20035;-78
2023/01/25 04:28:51;;;;;;;20.63;15.30;;;2.30;62.80;;;;;;4944886;29;20054;-79
2023/01/25 04:31:17;;;;;;;21.70;16.15;;;2.30;62.70;;;;;;4937006;28;20035;-78
2023/01/25 04:33:43;;;;;;;18.98;14.98;;;2.30;62.70;;;;;;4942611;29;20043;-78
2023/01/25 04:36:09;;;;;;;21.75;15.73;;;2.30;62.70;;;;;;4956342;29;20116;-79
2023/01/25 04:38:35;;;;;;;21.55;15.65;;;2.30;62.70;;;;;;4952432;29;20039;-79
2023/01/25 04:41:02;;;;;;;21.63;16.23;;;2.30;62.70;;;;;;4950058;29;20511;-79
2023/01/25 04:43:28;;;;;;;20.40;15.20;;;2.30;62.70;;;;;;4943206;29;20043;-79
2023/01/25 04:46:01;;;;;;;20.77;15.45;;;2.30;62.70;;;;;;4947561;29;20027;-78
2023/01/25 04:48:31;;;;;;;19.30;14.70;;;2.30;62.70;;;;;;4957560;28;20177;-80
2023/01/25 04:51:00;;;;;;;20.90;15.40;;;2.40;62.80;;;;;;4954185;28;20032;-80
2023/01/25 04:53:26;;;;;;;19.45;15.07;;;2.40;62.80;;;;;;4962674;28;20303;-80
2023/01/25 04:55:55;;;;;;;21.08;15.63;;;2.40;62.80;;;;;;4957016;28;20043;-80
2023/01/25 04:58:23;;;;;;;20.73;16.45;;;2.40;62.80;;;;;;4954287;29;20066;-81
2023/01/25 05:00:51;;;;;;;21.55;14.65;;;2.40;62.80;;;;;;4956772;29;20047;-80
2023/01/25 05:03:17;;;;;;;20.85;15.18;;;2.40;62.80;;;;;;4955521;29;20055;-80
2023/01/25 05:05:46;;;;;;;20.02;13.88;;;2.40;62.80;;;;;;4956340;28;20046;-78
2023/01/25 05:08:14;;;;;;;21.17;14.95;;;2.40;62.80;;;;;;4971807;28;20034;-79
2023/01/25 05:10:39;;;;;;;22.52;15.02;;;2.40;62.80;;;;;;4956427;29;20118;-79
2023/01/25 05:13:26;;;;;;;22.95;15.43;;;2.40;62.80;;;;;;4945921;28;20039;-78
2023/01/25 05:16:04;;;;;;;19.35;14.07;;;2.40;62.80;;;;;;4969529;28;20502;-79
2023/01/25 05:18:30;;;;;;;23.65;15.93;;;2.50;63.00;;;;;;4956066;28;20035;-78
2023/01/25 05:20:57;;;;;;;20.40;14.18;;;2.40;62.80;;;;;;4952007;28;20032;-79
2023/01/25 05:23:24;;;;;;;22.17;15.18;;;2.50;63.00;;;;;;4941253;28;20416;-78
2023/01/25 05:28:37;;;;;;;21.33;15.05;;;2.40;62.80;;;;;;4950591;29;20644;-79
2023/01/25 05:31:23;;;;;;;24.40;15.07;;;2.50;62.90;;;;;;4956499;28;20063;-79
2023/01/25 05:33:49;;;;;;;22.38;14.77;;;2.50;62.90;;;;;;4948573;28;20074;-81
2023/01/25 05:36:17;;;;;;;22.95;14.77;;;2.50;62.90;;;;;;4945154;29;20111;-77
2023/01/25 05:38:43;;;;;;;29.42;15.95;;;2.50;62.90;;;;;;4941528;29;20074;-80
2023/01/25 05:41:09;;;;;;;23.95;14.90;;;2.50;62.90;;;;;;4945857;28;20498;-79
2023/01/25 05:43:35;;;;;;;25.05;15.48;;;2.50;63.40;;;;;;4942361;28;20384;-79
2023/01/25 05:46:04;;;;;;;26.27;14.70;;;2.50;63.00;;;;;;4933129;28;20112;-79
2023/01/25 05:48:31;;;;;;;23.67;14.43;;;2.60;63.10;;;;;;4940241;28;20063;-80
2023/01/25 05:50:57;;;;;;;28.23;16.33;;;2.60;63.10;;;;;;4955108;28;20630;-79
2023/01/25 05:53:28;;;;;;;25.45;15.30;;;2.60;63.60;;;;;;4949030;28;20039;-78
2023/01/25 05:55:54;;;;;;;23.75;15.82;;;2.60;63.10;;;;;;4947063;28;20102;-79
2023/01/25 05:58:21;;;;;;;26.20;15.80;;;2.60;63.10;;;;;;4950397;28;20038;-79
2023/01/25 06:00:47;;;;;;;25.13;17.13;;;2.60;63.10;;;;;;4948785;28;20126;-78
2023/01/25 06:03:23;;;;;;;33.63;18.85;;;2.60;63.10;;;;;;4938102;29;20039;-80
2023/01/25 06:05:58;;;;;;;27.60;17.02;;;2.60;63.00;;;;;;4949624;28;20514;-80
2023/01/25 06:08:24;;;;;;;28.00;17.95;;;2.60;63.00;;;;;;4956179;29;20396;-80
2023/01/25 06:10:52;;;;;;;29.20;17.25;;;2.60;63.00;;;;;;4969993;28;20044;-81
2023/01/25 06:13:18;;;;;;;34.83;19.90;;;2.70;63.20;;;;;;4967227;29;20039;-89
2023/01/25 06:15:52;;;;;;;30.38;19.77;;;2.70;63.20;;;;;;4953433;29;20046;-91
2023/01/25 06:18:42;;;;;;;32.38;19.83;;;2.70;63.20;;;;;;4982795;28;20046;-89
2023/01/25 06:21:17;;;;;;;34.88;19.85;;;2.60;63.00;;;;;;4949188;29;20118;-88
2023/01/25 06:23:43;;;;;;;31.38;19.67;;;2.70;63.20;;;;;;4959993;28;20051;-86
2023/01/25 06:26:11;;;;;;;33.50;19.85;;;2.70;63.20;;;;;;4955208;28;20332;-84
2023/01/25 06:28:38;;;;;;;33.35;21.05;;;2.60;63.00;;;;;;4944957;29;20031;-88
2023/01/25 06:31:05;;;;;;;33.67;19.52;;;2.60;63.10;;;;;;4938430;29;20027;-91
2023/01/25 06:33:31;;;;;;;32.70;19.52;;;2.60;63.10;;;;;;4938183;29;20040;-77
2023/01/25 06:36:03;;;;;;;42.17;22.35;;;2.60;63.10;;;;;;4946015;29;20089;-78
2023/01/25 06:38:29;;;;;;;48.30;26.27;;;2.70;63.30;;;;;;4951068;28;20122;-81
2023/01/25 06:41:01;;;;;;;43.75;24.50;;;2.60;63.10;;;;;;4946595;29;20043;-85
2023/01/25 06:43:28;;;;;;;42.83;23.92;;;2.60;63.10;;;;;;4941782;28;20031;-82
2023/01/25 06:46:02;;;;;;;41.03;23.58;;;2.60;63.20;;;;;;4945854;28;20031;-85
2023/01/25 06:48:29;;;;;;;42.70;23.63;;;2.60;63.20;;;;;;4946802;28;20078;-84
2023/01/25 06:51:01;;;;;;;46.55;24.17;;;2.60;63.20;;;;;;4924874;29;20113;-79
2023/01/25 06:53:29;;;;;;;46.38;24.98;;;2.60;63.30;;;;;;4928354;29;20130;-86
2023/01/25 06:56:05;;;;;;;45.75;24.20;;;2.50;63.10;;;;;;4941448;28;20050;-85
2023/01/25 06:58:32;;;;;;;45.33;23.38;;;2.50;63.20;;;;;;4946849;29;20046;-87
2023/01/25 07:01:03;;;;;;;43.25;24.67;;;2.50;63.20;;;;;;4949249;28;20049;-86
2023/01/25 07:03:30;;;;;;;40.83;23.20;;;2.50;63.30;;;;;;4946868;28;20023;-84
2023/01/25 07:06:01;;;;;;;45.03;23.30;;;2.50;63.30;;;;;;4946022;28;20043;-87
2023/01/25 07:08:27;;;;;;;44.92;23.05;;;2.50;63.40;;;;;;4933214;29;20123;-88
2023/01/25 07:10:55;;;;;;;47.08;25.40;;;2.50;63.40;;;;;;4944688;29;20114;-88
2023/01/25 07:13:21;;;;;;;52.60;24.40;;;2.50;63.40;;;;;;4938650;28;20043;-88
2023/01/25 07:15:55;;;;;;;45.22;23.17;;;2.40;63.30;;;;;;4947800;28;20035;-79
2023/01/25 07:18:21;;;;;;;47.97;24.13;;;2.40;63.40;;;;;;4943753;29;20048;-79
2023/01/25 07:20:47;;;;;;;45.92;22.08;;;2.40;63.40;;;;;;4946713;29;20215;-87
2023/01/25 07:23:13;;;;;;;47.60;22.30;;;2.40;63.50;;;;;;4948933;28;20062;-89
2023/01/25 07:25:45;;;;;;;46.35;23.50;;;2.50;63.80;;;;;;4935378;29;20511;-84
2023/01/25 07:28:11;;;;;;;46.45;22.17;;;2.50;63.80;;;;;;4944657;28;20502;-88
2023/01/25 07:30:37;;;;;;;43.08;21.77;;;2.60;64.00;;;;;;4945758;28;20174;-88
2023/01/25 07:33:02;;;;;;;41.45;21.73;;;2.60;64.00;;;;;;4941300;28;20083;-87
2023/01/25 07:35:29;;;;;;;42.17;21.50;;;2.60;64.00;;;;;;4952050;28;20395;-86
2023/01/25 07:37:55;;;;;;;40.50;21.00;;;2.70;64.10;;;;;;4946384;29;20126;-88
2023/01/25 07:40:24;;;;;;;38.83;21.75;;;2.60;63.90;;;;;;4945377;28;20118;-84
2023/01/25 07:42:51;;;;;;;38.22;20.13;;;2.70;64.10;;;;;;4936738;28;20048;-86
2023/01/25 07:45:18;;;;;;;35.70;20.40;;;2.70;64.10;;;;;;4934856;28;20522;-83
2023/01/25 07:47:44;;;;;;;34.10;18.92;;;2.70;64.10;;;;;;4915866;29;20052;-87
2023/01/25 07:50:10;;;;;;;35.90;19.63;;;2.70;64.10;;;;;;4925649;29;20043;-84
2023/01/25 07:52:37;;;;;;;37.55;20.65;;;2.80;64.30;;;;;;4924395;29;20251;-82
2023/01/25 07:55:03;;;;;;;38.05;20.45;;;2.70;64.10;;;;;;4949295;28;20502;-84
2023/01/25 07:57:29;;;;;;;45.50;21.13;;;2.80;64.60;;;;;;4938263;28;20050;-84
2023/01/25 07:59:55;;;;;;;39.83;21.15;;;2.80;64.30;;;;;;4943713;28;20035;-84
2023/01/25 08:02:21;;;;;;;36.72;20.23;;;2.80;64.30;;;;;;4941402;28;20107;-83
2023/01/25 08:04:47;;;;;;;35.83;19.60;;;2.80;64.30;;;;;;4929274;29;20074;-80
2023/01/25 08:07:13;;;;;;;38.33;20.27;;;2.90;64.40;;;;;;4918335;28;20032;-83
2023/01/25 08:09:40;;;;;;;34.85;18.42;;;2.90;64.40;;;;;;4922072;29;20143;-84
2023/01/25 08:12:07;;;;;;;34.65;19.60;;;2.90;64.40;;;;;;4922898;28;20039;-83
2023/01/25 08:14:33;;;;;;;40.03;21.30;;;2.90;64.40;;;;;;4943586;28;20310;-87
2023/01/25 08:17:00;;;;;;;33.00;18.90;;;2.90;64.30;;;;;;4936116;28;20452;-86
2023/01/25 08:19:26;;;;;;;38.28;20.17;;;2.90;64.30;;;;;;4938667;28;20165;-85
2023/01/25 08:21:52;;;;;;;36.05;20.83;;;3.00;64.50;;;;;;4944467;28;20115;-86
2023/01/25 08:24:18;;;;;;;34.35;19.60;;;3.00;64.50;;;;;;4945361;28;20522;-83
2023/01/25 08:26:44;;;;;;;37.28;20.77;;;3.00;64.50;;;;;;4932894;28;20070;-81
2023/01/25 08:29:11;;;;;;;34.70;20.42;;;3.00;64.50;;;;;;4943511;28;20043;-84
2023/01/25 08:31:40;;;;;;;35.15;19.65;;;3.00;64.40;;;;;;4939452;28;20044;-80
2023/01/25 08:34:06;;;;;;;34.05;19.08;;;3.00;64.40;;;;;;4934508;29;20112;-82
2023/01/25 08:36:33;;;;;;;33.83;18.83;;;3.10;64.50;;;;;;4944226;29;20047;-80
2023/01/25 08:39:03;;;;;;;34.95;20.35;;;3.10;64.50;;;;;;4940678;28;20035;-82
2023/01/25 08:41:31;;;;;;;38.53;20.17;;;3.10;64.50;;;;;;4944109;28;20065;-82
2023/01/25 08:43:58;;;;;;;35.83;19.23;;;3.10;64.50;;;;;;4932193;29;20491;-81
2023/01/25 08:46:29;;;;;;;40.40;20.67;;;3.10;64.40;;;;;;4924967;29;20159;-81
2023/01/25 08:48:56;;;;;;;42.03;21.85;;;3.20;64.60;;;;;;4923003;29;20036;-83
2023/01/25 08:51:25;;;;;;;37.20;19.58;;;3.20;64.50;;;;;;4936031;29;20027;-88
2023/01/25 08:53:51;;;;;;;40.05;20.17;;;3.20;64.50;;;;;;4917255;29;20032;-86
2023/01/25 08:56:18;;;;;;;36.38;20.88;;;3.30;64.60;;;;;;4939878;28;20147;-88
2023/01/25 08:58:46;;;;;;;39.33;20.52;;;3.30;64.60;;;;;;4942607;28;20372;-86
2023/01/25 09:01:15;;;;;;;39.40;20.92;;;3.40;64.70;;;;;;4929782;28;20058;-87
2023/01/25 09:03:44;;;;;;;41.88;22.83;;;3.30;64.50;;;;;;4926583;28;20050;-85
2023/01/25 09:06:10;;;;;;;48.25;21.60;;;3.40;64.60;;;;;;4928187;29;20058;-89
2023/01/25 09:08:37;;;;;;;42.00;20.95;;;3.40;64.60;;;;;;4931005;29;20035;-82
2023/01/25 09:11:05;;;;;;;42.83;22.83;;;3.50;64.80;;;;;;4920641;29;20090;-81
2023/01/25 09:13:31;;;;;;;43.78;23.38;;;3.50;64.80;;;;;;4916353;29;20095;-80
2023/01/25 09:16:02;;;;;;;47.90;24.98;;;3.50;64.70;;;;;;4925861;28;20534;-80
2023/01/25 09:18:29;;;;;;;47.88;24.33;;;3.60;64.80;;;;;;4931309;29;20367;-81
2023/01/25 09:20:59;;;;;;;45.03;22.65;;;3.60;64.80;;;;;;4929223;28;20075;-89
2023/01/25 09:23:25;;;;;;;40.75;23.38;;;3.70;64.90;;;;;;4930204;29;20054;-89
2023/01/25 09:25:58;;;;;;;44.30;22.85;;;3.70;64.80;;;;;;4933892;28;20024;-90
2023/01/25 09:28:26;;;;;;;42.85;22.50;;;3.70;64.80;;;;;;4931330;28;20086;-88
2023/01/25 09:30:57;;;;;;;44.00;23.38;;;3.80;64.90;;;;;;4916430;29;20023;-87
2023/01/25 09:33:45;;;;;;;38.50;21.10;;;3.80;64.80;;;;;;4914915;29;20058;-86
2023/01/25 09:36:11;;;;;;;39.78;23.10;;;3.90;64.90;;;;;;4931126;29;20039;-85
2023/01/25 09:38:37;;;;;;;40.95;23.42;;;3.90;64.90;;;;;;4930669;29;20036;-86
2023/01/25 09:41:08;;;;;;;41.83;22.35;;;4.00;65.00;;;;;;4929364;29;20487;-87
2023/01/25 09:44:08;;;;;;;44.72;23.15;;;4.00;64.90;;;;;;4936268;29;20028;-89
2023/01/25 09:46:52;;;;;;;39.03;22.90;;;4.10;65.10;;;;;;4933370;29;20254;-89
2023/01/25 09:49:50;;;;;;;36.90;21.35;;;4.10;65.00;;;;;;4935577;29;20039;-87
2023/01/25 09:52:45;;;;;;;34.70;20.55;;;4.20;65.10;;;;;;4918445;29;20035;-85
2023/01/25 09:55:14;;;;;;;37.72;21.42;;;4.20;65.00;;;;;;4928523;29;20534;-84
2023/01/25 09:57:43;;;;;;;34.63;21.52;;;4.30;65.10;;;;;;4929451;29;20039;-82
2023/01/25 10:00:18;;;;;;;36.90;21.45;;;4.30;65.10;;;;;;4938950;29;20028;-83
2023/01/25 10:03:10;;;;;;;35.63;20.40;;;4.30;65.10;;;;;;4928394;29;20040;-86
2023/01/25 10:05:46;;;;;;;35.60;22.05;;;4.40;65.20;;;;;;4927353;29;20039;-84
2023/01/25 10:08:13;;;;;;;37.10;21.42;;;4.40;65.10;;;;;;4930709;29;20094;-84
2023/01/25 10:10:41;;;;;;;37.47;22.83;;;4.50;65.20;;;;;;4940109;28;20110;-84
2023/01/25 10:13:13;;;;;;;32.03;18.92;;;4.50;65.20;;;;;;4941375;28;20039;-82
2023/01/25 10:15:44;;;;;;;33.55;20.38;;;4.60;65.30;;;;;;4947964;28;20226;-85
2023/01/25 10:18:33;;;;;;;38.22;21.95;;;4.60;65.20;;;;;;4947413;29;20039;-84
2023/01/25 10:21:20;;;;;;;32.75;22.83;;;4.70;65.30;;;;;;4945848;28;20047;-85
2023/01/25 10:24:09;;;;;;;35.38;22.08;;;4.80;65.40;;;;;;4936213;28;20543;-84
2023/01/25 10:26:37;;;;;;;32.20;21.50;;;4.90;65.40;;;;;;4946810;28;20039;-86
2023/01/25 10:29:09;;;;;;;37.70;21.77;;;5.00;65.40;;;;;;4939791;29;20038;-84
2023/01/25 10:31:50;;;;;;;36.17;23.17;;;5.00;65.30;;;;;;4947070;28;20031;-83
2023/01/25 10:34:16;;;;;;;32.05;21.75;;;5.10;65.40;;;;;;4934918;28;20121;-84
2023/01/25 10:36:45;;;;;;;34.63;21.98;;;5.20;65.50;;;;;;4945873;28;20634;-83
2023/01/25 10:39:11;;;;;;;31.10;20.98;;;5.20;65.40;;;;;;4941778;28;20059;-83
2023/01/25 10:41:41;;;;;;;34.88;22.58;;;5.30;65.50;;;;;;4945782;28;20581;-79
2023/01/25 10:44:20;;;;;;;40.20;20.80;;;5.30;65.50;;;;;;4929689;29;20556;-79
2023/01/25 10:46:56;;;;;;;33.17;22.40;;;5.30;65.40;;;;;;4943623;29;20055;-82
2023/01/25 10:49:45;;;;;;;33.75;21.58;;;5.40;65.60;;;;;;4939267;29;20035;-79
2023/01/25 10:52:16;;;;;;;31.65;20.45;;;5.50;65.70;;;;;;4931447;29;20055;-84
2023/01/25 10:54:42;;;;;;;35.22;22.25;;;5.50;65.70;;;;;;4946256;28;20466;-83
2023/01/25 10:57:17;;;;;;;32.88;21.45;;;5.60;65.80;;;;;;4942807;28;20085;-81
2023/01/25 10:59:49;;;;;;;34.10;22.17;;;5.70;65.90;;;;;;4935557;28;20542;-82
2023/01/25 11:02:34;;;;;;;35.50;22.58;;;5.90;66.10;;;;;;4941712;29;20055;-85
2023/01/25 11:05:26;;;;;;;34.15;23.33;;;6.00;66.10;;;;;;4937003;29;20039;-82
2023/01/25 11:07:52;;;;;;;33.10;21.77;;;6.10;66.10;;;;;;4943961;28;20731;-83
2023/01/25 11:10:36;;;;;;;37.45;24.63;;;6.10;65.90;;;;;;4939996;29;20199;-83
2023/01/25 11:13:15;;;;;;;37.85;24.05;;;6.20;66.00;;;;;;4940352;28;20344;-82
2023/01/25 11:15:43;;;;;;;33.78;23.38;;;6.20;65.90;;;;;;4945306;28;20031;-80
2023/01/25 11:18:33;;;;;;;29.73;21.85;;;6.30;66.00;;;;;;4940506;28;20040;-80
2023/01/25 11:21:21;;;;;;;35.40;25.08;;;6.30;66.10;;;;;;4943739;28;20050;-81
2023/01/25 11:24:05;;;;;;;30.27;23.13;;;6.30;66.00;;;;;;4936942;28;20580;-79
2023/01/25 11:26:35;;;;;;;31.52;23.58;;;6.40;66.20;;;;;;4943272;28;20058;-82
2023/01/25 11:29:13;;;;;;;30.85;22.42;;;6.40;66.10;;;;;;4941910;28;20036;-81
2023/01/25 11:31:44;;;;;;;34.47;23.55;;;6.40;66.10;;;;;;4943319;29;20122;-82
2023/01/25 11:34:19;;;;;;;33.40;24.17;;;6.50;66.20;;;;;;4942505;28;20043;-82
2023/01/25 11:37:06;;;;;;;33.10;24.10;;;6.50;66.20;;;;;;4945995;28;20093;-81
2023/01/25 11:39:42;;;;;;;31.58;22.77;;;6.60;66.20;;;;;;4942898;29;20087;-82
2023/01/25 11:42:35;;;;;;;29.90;21.00;;;6.70;66.40;;;;;;4932302;28;20124;-83
2023/01/25 11:45:38;;;;;;;31.30;21.17;;;6.70;66.30;;;;;;4924182;29;20040;-84
2023/01/25 11:48:29;;;;;;;32.00;22.00;;;6.80;66.30;;;;;;4919319;29;20459;-82
2023/01/25 11:50:55;;;;;;;35.03;24.33;;;6.90;66.20;;;;;;4931088;29;20071;-84
2023/01/25 11:53:40;;;;;;;35.47;24.55;;;7.00;66.30;;;;;;4945545;28;20078;-81
2023/01/25 11:56:31;;;;;;;34.65;23.52;;;7.00;66.40;;;;;;4934549;29;20047;-80
2023/01/25 11:59:18;;;;;;;31.48;21.92;;;7.10;66.60;;;;;;4942428;29;20046;-78
2023/01/25 12:02:08;;;;;;;34.83;23.92;;;7.10;66.40;;;;;;4945104;28;20341;-81
2023/01/25 12:05:01;;;;;;;38.00;23.48;;;7.10;66.40;;;;;;4941307;28;20034;-83
2023/01/25 12:07:56;;;;;;;33.83;23.95;;;7.10;66.40;;;;;;4935189;28;20035;-83
2023/01/25 12:10:46;;;;;;;37.88;24.20;;;7.20;66.50;;;;;;4931447;28;20173;-82
2023/01/25 12:13:28;;;;;;;35.60;23.10;;;7.20;66.50;;;;;;4941076;29;20035;-81
2023/01/25 12:16:06;;;;;;;30.85;23.77;;;7.20;66.50;;;;;;4945563;28;20254;-82
2023/01/25 12:18:54;;;;;;;36.35;26.45;;;7.30;66.70;;;;;;4938477;29;20039;-83
2023/01/25 12:22:03;;;;;;;39.25;25.13;;;7.20;66.50;;;;;;4939903;29;20089;-81
2023/01/25 12:24:47;;;;;;;35.70;23.92;;;7.20;66.40;;;;;;4939133;28;20043;-83
2023/01/25 12:27:48;;;;;;;33.75;23.58;;;7.20;66.40;;;;;;4937938;29;20090;-85
2023/01/25 12:30:23;;;;;;;34.22;23.55;;;7.20;66.40;;;;;;4933816;28;20038;-83
2023/01/25 12:33:03;;;;;;;35.35;24.63;;;7.20;66.40;;;;;;4927420;29;21024;-77
2023/01/25 12:35:40;;;;;;;37.80;26.30;;;7.20;66.40;;;;;;4938327;29;20035;-80
2023/01/25 12:38:19;;;;;;;37.95;25.75;;;7.20;66.50;;;;;;4945468;28;20523;-79
2023/01/25 12:41:17;;;;;;;40.05;26.33;;;7.20;66.50;;;;;;4929805;29;21374;-80
2023/01/25 12:43:57;;;;;;;34.95;23.13;;;7.20;66.50;;;;;;4919729;29;20043;-80
2023/01/25 12:46:34;;;;;;;41.15;27.50;;;7.30;66.60;;;;;;4925199;29;20059;-78
2023/01/25 12:49:06;;;;;;;36.22;24.02;;;7.30;66.60;;;;;;4928118;28;20277;-79
2023/01/25 12:51:38;;;;;;;36.67;24.10;;;7.30;66.50;;;;;;4924760;29;20094;-79
2023/01/25 12:54:31;;;;;;;39.22;25.88;;;7.40;66.60;;;;;;4940074;28;20277;-79
2023/01/25 12:57:05;;;;;;;44.05;28.27;;;7.40;66.60;;;;;;4925828;28;20031;-85
2023/01/25 12:59:52;;;;;;;47.72;28.30;;;7.40;66.60;;;;;;4936659;28;20115;-85
2023/01/25 13:02:32;;;;;;;42.80;26.55;;;7.50;66.70;;;;;;4915136;29;20090;-86